Time;durP1;ratioP1;P1;durP2;ratioP2;P2;SDS_P1;SDS_P2;PMS_P1;PMS_P2;Temp;Humidity;BMP_temperature;BMP_pressure;BME280_temperature;BME280_humidity;BME280_pressure;Samples;Min_cycle;Max_cycle;Signal;HPM_P1;HPM_P2
2022/10/29 00:00:43;;;;;;;0.10;0.10;;;;;;;14.94;71.90;102212.63;5049979;28;20033;-79
2022/10/29 00:03:09;;;;;;;0.10;0.10;;;;;;;14.94;72.14;102215.31;5049393;28;20025;-80
2022/10/29 00:05:35;;;;;;;0.08;0.08;;;;;;;14.91;72.12;102216.25;5048099;28;20033;-80
2022/10/29 00:08:02;;;;;;;0.10;0.10;;;;;;;14.89;72.06;102215.38;5052715;28;20059;-80
2022/10/29 00:10:28;;;;;;;0.10;0.10;;;;;;;14.88;71.97;102213.63;5051509;28;20022;-80
2022/10/29 00:12:54;;;;;;;0.20;0.20;;;;;;;14.87;72.06;102212.75;5057031;28;20472;-80
2022/10/29 00:15:21;;;;;;;0.10;0.10;;;;;;;14.85;71.95;102211.00;5056085;28;20044;-80
2022/10/29 00:17:47;;;;;;;0.10;0.10;;;;;;;14.84;72.30;102212.81;5057661;28;20413;-80
2022/10/29 00:20:13;;;;;;;0.10;0.10;;;;;;;14.83;72.24;102197.69;5056309;28;20040;-80
2022/10/29 00:22:39;;;;;;;0.10;0.10;;;;;;;14.83;72.21;102200.38;5049601;28;20017;-80
2022/10/29 00:25:05;;;;;;;0.10;0.10;;;;;;;14.84;72.32;102193.22;5051469;28;20079;-80
2022/10/29 00:27:31;;;;;;;0.25;0.25;;;;;;;14.83;72.29;102195.03;5052964;28;20043;-80
2022/10/29 00:29:57;;;;;;;0.10;0.10;;;;;;;14.88;72.37;102186.97;5052491;28;21433;-79
2022/10/29 00:32:24;;;;;;;0.17;0.17;;;;;;;14.90;72.12;102179.78;5047267;28;20040;-80
2022/10/29 00:34:50;;;;;;;0.10;0.10;;;;;;;14.90;72.39;102184.25;5035427;28;20048;-79
2022/10/29 00:37:16;;;;;;;0.10;0.10;;;;;;;14.91;72.26;102197.56;5031246;28;20061;-80
2022/10/29 00:39:42;;;;;;;0.22;0.22;;;;;;;14.88;72.12;102201.16;5036566;28;20040;-80
2022/10/29 00:42:16;;;;;;;0.10;0.10;;;;;;;14.92;72.21;102193.13;5040186;28;20444;-80
2022/10/29 00:44:43;;;;;;;0.10;0.10;;;;;;;14.87;72.48;102190.53;5048554;28;20077;-80
2022/10/29 00:47:28;;;;;;;0.10;0.10;;;;;;;14.91;72.20;102178.88;5046988;28;20056;-80
2022/10/29 00:50:01;;;;;;;0.10;0.10;;;;;;;14.88;72.30;102176.28;5040792;28;20116;-80
2022/10/29 00:52:31;;;;;;;0.10;0.10;;;;;;;14.87;72.38;102179.84;5039276;28;20026;-80
2022/10/29 00:55:02;;;;;;;0.10;0.10;;;;;;;14.84;72.12;102177.22;5037855;28;20041;-80
2022/10/29 00:57:35;;;;;;;0.20;0.20;;;;;;;14.82;72.07;102182.59;5038607;28;20385;-80
2022/10/29 01:00:01;;;;;;;0.10;0.10;;;;;;;14.80;72.17;102183.53;5037771;28;20094;-80
2022/10/29 01:02:30;;;;;;;0.10;0.10;;;;;;;14.79;72.34;102187.09;5047795;28;20020;-80
2022/10/29 01:04:57;;;;;;;0.10;0.10;;;;;;;14.75;72.03;102183.59;5042138;28;20523;-80
2022/10/29 01:07:23;;;;;;;0.10;0.10;;;;;;;14.71;72.05;102189.88;5037453;28;20095;-80
2022/10/29 01:09:49;;;;;;;0.10;0.10;;;;;;;14.67;72.13;102177.50;5034543;28;20039;-79
2022/10/29 01:12:55;;;;;;;0.10;0.10;;;;;;;14.62;72.08;102174.00;5041065;28;20595;-80
2022/10/29 01:15:44;;;;;;;0.10;0.10;;;;;;;14.52;72.54;102157.25;5036367;28;20052;-80
2022/10/29 01:18:23;;;;;;;0.10;0.10;;;;;;;14.50;72.42;102153.72;5033153;28;20033;-79
2022/10/29 01:21:14;;;;;;;0.10;0.10;;;;;;;14.44;72.32;102146.69;5038079;28;20676;-80
2022/10/29 01:29:15;;;;;;;0.10;0.10;;;;;;;14.31;72.57;102148.66;5084459;27;1867512;-80
2022/10/29 01:32:21;;;;;;;0.10;0.10;;;;;;;14.37;72.27;102145.03;5145498;27;20038;-80
2022/10/29 01:35:16;;;;;;;0.10;0.10;;;;;;;14.35;72.17;102144.19;5141366;27;20044;-80
2022/10/29 01:38:08;;;;;;;0.10;0.10;;;;;;;14.33;72.18;102140.63;5123439;27;20056;-80
2022/10/29 01:40:45;;;;;;;0.30;0.30;;;;;;;14.29;72.12;102149.59;5131052;27;20439;-80
2022/10/29 01:43:19;;;;;;;0.10;0.10;;;;;;;14.27;72.34;102146.06;5130360;27;20023;-80
2022/10/29 01:45:53;;;;;;;0.10;0.10;;;;;;;14.26;72.31;102141.66;5131171;27;20050;-80
2022/10/29 01:48:25;;;;;;;0.10;0.10;;;;;;;14.23;72.24;102135.47;5131746;27;20059;-80
2022/10/29 01:50:54;;;;;;;0.10;0.10;;;;;;;14.22;72.26;102133.69;5125968;27;20031;-79
2022/10/29 01:53:20;;;;;;;0.10;0.10;;;;;;;14.19;72.25;102140.84;5126550;27;20110;-79
2022/10/29 01:55:46;;;;;;;0.10;0.10;;;;;;;14.15;72.26;102134.69;5132226;27;20205;-80
2022/10/29 01:58:13;;;;;;;0.10;0.10;;;;;;;14.11;72.26;102140.97;5126360;28;20023;-79
2022/10/29 02:01:19;;;;;;;0.52;0.52;;;;;;;14.14;72.27;102135.56;5128500;27;20027;-80
2022/10/29 02:04:18;;;;;;;0.10;0.10;;;;;;;14.12;72.16;102124.06;5133020;27;20034;-80
2022/10/29 02:07:10;;;;;;;0.10;0.10;;;;;;;14.12;72.40;102125.84;5128150;27;20054;-80
2022/10/29 02:09:56;;;;;;;0.10;0.10;;;;;;;14.14;72.36;102129.38;5120108;27;20071;-80
2022/10/29 02:15:18;;;;;;;0.20;0.20;;;;;;;14.09;72.42;102129.44;5072983;28;20404;-80
2022/10/29 02:17:44;;;;;;;0.10;0.10;;;;;;;14.07;72.61;102121.47;5047250;28;20529;-80
2022/10/29 02:20:12;;;;;;;0.17;0.17;;;;;;;14.08;72.47;102119.66;5051148;28;20033;-80
2022/10/29 02:22:39;;;;;;;0.10;0.10;;;;;;;14.07;72.45;102123.25;5050910;28;20036;-80
2022/10/29 02:25:06;;;;;;;0.10;0.10;;;;;;;14.06;72.62;102118.81;5046961;28;20032;-80
2022/10/29 02:27:33;;;;;;;0.20;0.20;;;;;;;14.04;72.68;102117.97;5049311;28;20037;-80
2022/10/29 02:29:59;;;;;;;0.10;0.10;;;;;;;14.03;72.84;102110.88;5051485;28;20060;-79
2022/10/29 02:32:25;;;;;;;0.10;0.10;;;;;;;14.02;72.64;102120.66;5048562;28;20444;-79
2022/10/29 02:34:51;;;;;;;0.10;0.10;;;;;;;14.01;72.49;102113.56;5055268;28;20027;-80
2022/10/29 02:37:17;;;;;;;0.73;0.73;;;;;;;14.03;72.56;102105.53;5045265;28;20125;-80
2022/10/29 02:39:43;;;;;;;0.63;0.63;;;;;;;14.04;72.52;102101.97;5046812;28;20029;-80
2022/10/29 02:42:10;;;;;;;0.10;0.10;;;;;;;14.05;72.74;102098.41;5050845;28;20040;-80
2022/10/29 02:44:36;;;;;;;0.10;0.10;;;;;;;14.06;72.78;102092.19;5049472;28;20030;-80
2022/10/29 02:47:02;;;;;;;0.10;0.10;;;;;;;14.07;72.44;102091.28;5051486;28;20040;-79
2022/10/29 02:49:29;;;;;;;0.10;0.10;;;;;;;14.06;72.41;102089.50;5048748;28;20061;-80
2022/10/29 02:51:55;;;;;;;0.10;0.10;;;;;;;14.07;72.80;102081.50;5045084;28;20071;-79
2022/10/29 02:54:21;;;;;;;0.10;0.10;;;;;;;14.09;72.73;102076.13;5050242;28;20021;-80
2022/10/29 02:56:47;;;;;;;0.10;0.10;;;;;;;14.08;72.85;102077.94;5048985;28;20044;-80
2022/10/29 02:59:13;;;;;;;0.10;0.10;;;;;;;14.09;72.71;102078.78;5043586;28;20544;-80
2022/10/29 03:01:39;;;;;;;0.10;0.10;;;;;;;14.10;72.79;102071.69;5047087;28;20068;-80
2022/10/29 03:04:05;;;;;;;0.10;0.10;;;;;;;14.11;72.52;102078.78;5047543;28;20037;-79
2022/10/29 03:06:31;;;;;;;0.20;0.20;;;;;;;14.12;72.57;102077.88;5046156;28;20479;-80
2022/10/29 03:08:57;;;;;;;0.10;0.10;;;;;;;14.14;72.73;102081.41;5043256;28;20574;-80
2022/10/29 03:11:23;;;;;;;0.10;0.10;;;;;;;14.09;73.29;102078.78;5046025;28;20047;-80
2022/10/29 03:13:49;;;;;;;0.10;0.10;;;;;;;14.10;73.25;102083.22;5043979;28;20063;-80
2022/10/29 03:16:15;;;;;;;0.35;0.35;;;;;;;14.15;73.46;102089.38;5044759;28;20040;-79
2022/10/29 03:18:41;;;;;;;0.10;0.10;;;;;;;14.21;73.29;102083.94;5047238;28;20029;-80
2022/10/29 03:21:08;;;;;;;0.10;0.10;;;;;;;14.28;73.41;102091.84;5046531;28;20031;-80
2022/10/29 03:23:34;;;;;;;0.20;0.20;;;;;;;14.33;73.71;102087.31;5044886;28;20044;-79
2022/10/29 03:26:00;;;;;;;0.30;0.30;;;;;;;14.48;73.04;102087.09;5036025;28;20029;-80
2022/10/29 03:28:27;;;;;;;0.10;0.10;;;;;;;14.54;73.05;102084.31;5032206;28;20440;-80
2022/10/29 03:30:53;;;;;;;0.10;0.10;;;;;;;14.56;73.37;102085.16;5031122;28;20029;-80
2022/10/29 03:33:19;;;;;;;0.10;0.10;;;;;;;14.55;73.29;102074.53;5028393;28;21779;-80
2022/10/29 03:35:45;;;;;;;0.10;0.10;;;;;;;14.63;73.22;102074.38;5034477;28;20036;-80
2022/10/29 03:38:12;;;;;;;3.40;1.35;;;;;;;14.69;73.20;102074.31;5034744;28;20044;-80
2022/10/29 03:40:38;;;;;;;0.10;0.10;;;;;;;14.72;73.27;102071.59;5036986;28;20108;-80
2022/10/29 03:43:04;;;;;;;0.10;0.10;;;;;;;14.76;73.13;102067.97;5035625;28;20501;-80
2022/10/29 03:45:30;;;;;;;0.00;0.00;;;;;;;14.81;73.13;102063.41;5036138;28;20033;-80
2022/10/29 03:47:56;;;;;;;0.35;0.35;;;;;;;14.83;73.10;102055.41;5036341;28;20025;-80
2022/10/29 03:50:22;;;;;;;0.10;0.10;;;;;;;14.76;73.34;102059.97;5031503;28;20033;-80
2022/10/29 03:52:48;;;;;;;0.10;0.10;;;;;;;14.78;73.52;102060.81;5034742;28;20041;-80
2022/10/29 03:55:14;;;;;;;0.20;0.20;;;;;;;14.85;73.35;102054.47;5038037;28;20040;-80
2022/10/29 03:57:40;;;;;;;0.10;0.10;;;;;;;14.89;73.22;102049.94;5033971;28;20061;-79
2022/10/29 04:00:08;;;;;;;0.63;0.63;;;;;;;14.91;73.13;102058.81;5039885;28;20033;-80
2022/10/29 04:02:34;;;;;;;0.20;0.20;;;;;;;14.93;73.18;102054.31;5040281;28;20032;-80
2022/10/29 04:05:00;;;;;;;1.25;1.15;;;;;;;14.95;72.99;102048.94;5030349;28;20037;-80
2022/10/29 04:07:26;;;;;;;0.10;0.10;;;;;;;14.96;72.97;102048.03;5032666;28;20374;-80
2022/10/29 04:09:52;;;;;;;0.17;0.17;;;;;;;14.97;72.80;102049.81;5032182;28;20039;-79
2022/10/29 04:12:18;;;;;;;0.10;0.10;;;;;;;14.98;72.80;102048.91;5033118;28;20029;-80
2022/10/29 04:14:44;;;;;;;0.75;0.75;;;;;;;14.99;72.82;102050.63;5033971;28;20033;-80
2022/10/29 04:17:11;;;;;;;15.98;0.85;;;;;;;15.01;72.92;102062.19;5031957;28;20041;-80
2022/10/29 04:19:37;;;;;;;0.10;0.10;;;;;;;15.03;72.89;102068.38;5033373;28;20033;-80
2022/10/29 04:22:03;;;;;;;0.10;0.10;;;;;;;15.05;72.97;102053.19;5034119;28;20033;-80
2022/10/29 04:24:29;;;;;;;0.10;0.10;;;;;;;15.08;72.86;102050.47;5035366;28;20041;-80
2022/10/29 04:26:55;;;;;;;0.10;0.10;;;;;;;15.08;72.93;102050.47;5035246;28;20063;-80
2022/10/29 04:29:22;;;;;;;0.10;0.10;;;;;;;15.10;72.87;102034.44;5033249;28;20033;-80
2022/10/29 04:31:48;;;;;;;0.10;0.10;;;;;;;15.11;72.73;102029.06;5033089;28;20603;-80
2022/10/29 04:34:14;;;;;;;0.28;0.28;;;;;;;15.13;72.87;102029.91;5028639;28;20029;-80
2022/10/29 04:36:40;;;;;;;0.10;0.10;;;;;;;15.15;72.69;102036.09;5036222;28;20120;-79
2022/10/29 04:39:07;;;;;;;0.10;0.10;;;;;;;15.17;72.89;102041.41;5032239;28;20037;-80
2022/10/29 04:41:33;;;;;;;0.10;0.10;;;;;;;15.16;72.89;102032.50;5031237;28;20045;-80
2022/10/29 04:44:00;;;;;;;0.10;0.10;;;;;;;15.18;72.89;102037.84;5032953;28;20505;-80
2022/10/29 04:46:26;;;;;;;8.93;0.95;;;;;;;15.06;72.95;102040.75;5032018;28;20037;-80
2022/10/29 04:48:52;;;;;;;0.10;0.10;;;;;;;15.03;72.98;102033.69;5031644;28;20029;-80
2022/10/29 04:51:21;;;;;;;0.10;0.10;;;;;;;15.01;73.01;102040.81;5028545;28;20029;-79
2022/10/29 04:53:48;;;;;;;0.30;0.30;;;;;;;15.06;72.45;102033.59;5030180;28;20396;-80
2022/10/29 04:56:14;;;;;;;0.03;0.03;;;;;;;15.03;72.33;102036.34;5028235;28;20053;-80
2022/10/29 04:58:40;;;;;;;0.10;0.10;;;;;;;14.99;72.45;102043.53;5031106;28;20030;-80
2022/10/29 05:01:06;;;;;;;0.00;0.00;;;;;;;14.96;72.37;102040.03;5031272;28;20037;-80
2022/10/29 05:03:33;;;;;;;0.10;0.10;;;;;;;14.94;72.33;102036.50;5030077;28;20038;-80
2022/10/29 05:06:02;;;;;;;0.10;0.10;;;;;;;14.93;72.50;102034.75;5027716;28;20102;-80
2022/10/29 05:08:28;;;;;;;0.10;0.10;;;;;;;14.91;72.39;102031.25;5031709;28;20029;-80
2022/10/29 05:10:54;;;;;;;0.10;0.10;;;;;;;14.90;72.40;102024.16;5032370;28;20045;-79
2022/10/29 05:13:20;;;;;;;0.10;0.10;;;;;;;14.90;72.35;102003.66;5034472;28;20501;-80
2022/10/29 05:15:51;;;;;;;0.10;0.10;;;;;;;14.92;72.62;102006.34;5030076;28;20037;-80
2022/10/29 05:18:17;;;;;;;0.10;0.10;;;;;;;14.92;72.62;102001.00;5031603;28;20033;-80
2022/10/29 05:20:43;;;;;;;0.10;0.10;;;;;;;14.93;72.40;101992.94;5031269;28;20036;-80
2022/10/29 05:23:10;;;;;;;0.10;0.10;;;;;;;14.96;72.50;101995.53;5027176;28;20661;-80
2022/10/29 05:25:39;;;;;;;0.10;0.10;;;;;;;14.99;72.67;101991.94;5034547;28;20120;-80
2022/10/29 05:28:13;;;;;;;0.20;0.20;;;;;;;15.01;72.68;101988.31;5031437;28;20112;-80
2022/10/29 05:30:42;;;;;;;0.13;0.13;;;;;;;15.03;72.57;101988.31;5025512;28;20060;-80
2022/10/29 05:33:10;;;;;;;0.10;0.10;;;;;;;15.05;72.77;101989.13;5032128;28;20025;-80
2022/10/29 05:35:36;;;;;;;0.10;0.10;;;;;;;15.07;72.59;101991.78;5031645;28;20065;-80
2022/10/29 05:38:04;;;;;;;0.40;0.40;;;;;;;15.08;72.63;101990.88;5032589;28;20497;-80
2022/10/29 05:40:30;;;;;;;0.10;0.10;;;;;;;15.09;72.73;101988.19;5028949;28;20032;-80
2022/10/29 05:42:57;;;;;;;0.13;0.13;;;;;;;15.11;72.57;101983.66;5031016;28;20099;-80
2022/10/29 05:45:23;;;;;;;0.10;0.10;;;;;;;15.11;72.63;101989.00;5030833;28;20041;-80
2022/10/29 05:47:56;;;;;;;0.10;0.10;;;;;;;15.16;72.52;101994.25;5032383;28;20112;-80
2022/10/29 05:50:23;;;;;;;0.10;0.10;;;;;;;15.15;72.63;101992.50;5024324;28;20029;-80
2022/10/29 05:53:06;;;;;;;0.10;0.10;;;;;;;15.22;72.74;101988.78;5029427;28;20049;-80
2022/10/29 05:55:34;;;;;;;0.10;0.10;;;;;;;15.17;72.74;101991.56;5028763;28;20460;-80
2022/10/29 05:58:02;;;;;;;0.10;0.10;;;;;;;15.21;72.57;102003.06;5028544;28;20043;-80
2022/10/29 06:00:30;;;;;;;0.10;0.10;;;;;;;15.23;72.82;102006.59;5029892;28;20041;-80
2022/10/29 06:02:57;;;;;;;0.10;0.10;;;;;;;15.25;72.75;102006.53;5028990;28;20527;-80
2022/10/29 06:05:23;;;;;;;0.10;0.10;;;;;;;15.26;72.36;102001.16;5021407;28;20497;-80
2022/10/29 06:07:56;;;;;;;0.10;0.10;;;;;;;15.30;72.74;102001.97;5018163;28;20030;-80
2022/10/29 06:10:24;;;;;;;0.10;0.10;;;;;;;15.29;72.47;102001.13;5020275;28;20037;-80
2022/10/29 06:12:50;;;;;;;0.10;0.10;;;;;;;15.29;72.49;101994.88;5021659;28;20108;-80
2022/10/29 06:15:17;;;;;;;0.10;0.10;;;;;;;15.30;72.48;101999.31;5018892;28;20442;-80
2022/10/29 06:17:44;;;;;;;1.08;0.90;;;;;;;15.31;72.57;101987.72;5021682;28;20036;-80
2022/10/29 06:20:12;;;;;;;0.10;0.10;;;;;;;15.32;72.43;101984.16;5027352;28;20071;-80
2022/10/29 06:22:38;;;;;;;2.38;1.58;;;;;;;15.33;72.64;101981.44;5026082;28;20068;-80
2022/10/29 06:25:05;;;;;;;0.10;0.10;;;;;;;15.36;72.49;101985.81;5020829;28;20022;-80
2022/10/29 06:27:31;;;;;;;0.10;0.10;;;;;;;15.39;72.73;101979.53;5031999;28;20451;-80
2022/10/29 06:29:57;;;;;;;1.27;0.65;;;;;;;15.42;72.66;101977.69;5028856;28;20041;-80
2022/10/29 06:32:23;;;;;;;0.10;0.10;;;;;;;15.44;72.56;101973.19;5024210;28;20042;-80
2022/10/29 06:34:49;;;;;;;0.20;0.20;;;;;;;15.44;72.64;101970.53;5023760;28;20494;-80
2022/10/29 06:37:15;;;;;;;0.45;0.45;;;;;;;15.48;72.53;101974.88;5025568;28;20034;-80
2022/10/29 06:39:41;;;;;;;0.10;0.10;;;;;;;15.51;72.79;101969.47;5039861;28;20029;-80
2022/10/29 06:42:07;;;;;;;0.50;0.50;;;;;;;15.55;72.50;101966.72;5036564;28;20079;-81
2022/10/29 06:44:33;;;;;;;0.85;0.52;;;;;;;15.57;72.83;101968.44;5020157;28;20047;-79
2022/10/29 06:46:59;;;;;;;0.10;0.10;;;;;;;15.61;72.67;101969.25;5024888;28;20045;-80
2022/10/29 06:49:26;;;;;;;0.15;0.15;;;;;;;15.63;72.75;101972.78;5029495;28;20094;-80
2022/10/29 06:51:52;;;;;;;0.10;0.10;;;;;;;15.65;72.99;101962.91;5029123;28;20022;-80
2022/10/29 06:54:18;;;;;;;0.10;0.10;;;;;;;15.67;72.95;101971.78;5031015;28;20048;-80
2022/10/29 06:56:44;;;;;;;0.20;0.20;;;;;;;15.71;73.12;101967.25;5032449;28;20416;-80
2022/10/29 06:59:10;;;;;;;3.13;0.95;;;;;;;15.75;72.86;101961.81;5030358;28;20454;-79
2022/10/29 07:01:36;;;;;;;0.10;0.10;;;;;;;15.78;72.98;101956.38;5033296;28;20033;-80
2022/10/29 07:04:02;;;;;;;0.10;0.10;;;;;;;15.82;73.07;101960.75;5021907;28;20481;-80
2022/10/29 07:06:32;;;;;;;0.40;0.40;;;;;;;15.87;72.90;101963.31;5032180;28;20150;-80
2022/10/29 07:08:58;;;;;;;0.55;0.55;;;;;;;15.89;73.26;101966.84;5033511;28;20493;-80
2022/10/29 07:11:24;;;;;;;0.20;0.20;;;;;;;15.94;73.20;101962.25;5027686;28;20575;-80
2022/10/29 07:13:50;;;;;;;0.75;0.75;;;;;;;15.99;73.40;101959.47;5034271;28;20037;-80
2022/10/29 07:16:16;;;;;;;0.17;0.17;;;;;;;16.03;73.69;101971.84;5032757;28;20424;-80
2022/10/29 07:18:42;;;;;;;1.17;0.85;;;;;;;16.07;73.44;101961.97;5034420;28;20515;-80
2022/10/29 07:21:09;;;;;;;0.57;0.57;;;;;;;16.09;73.92;101968.16;5035843;28;20489;-80
2022/10/29 07:23:35;;;;;;;0.63;0.63;;;;;;;16.14;74.01;101967.09;5031477;28;20013;-80
2022/10/29 07:26:01;;;;;;;0.40;0.40;;;;;;;16.19;74.14;101961.66;5036224;28;20025;-80
2022/10/29 07:28:27;;;;;;;0.15;0.15;;;;;;;16.23;74.16;101968.66;5033507;28;20108;-80
2022/10/29 07:30:59;;;;;;;0.95;0.80;;;;;;;16.31;73.60;101960.44;5032302;28;20551;-80
2022/10/29 07:33:26;;;;;;;0.40;0.40;;;;;;;16.35;73.55;101962.13;5031197;28;20504;-80
2022/10/29 07:35:57;;;;;;;0.20;0.20;;;;;;;16.42;73.38;101958.34;5029709;28;20037;-80
2022/10/29 07:38:23;;;;;;;0.20;0.20;;;;;;;16.46;73.41;101956.47;5019609;28;20025;-80
2022/10/29 07:40:50;;;;;;;0.77;0.65;;;;;;;16.52;74.25;101942.06;5017707;28;20026;-80
2022/10/29 07:43:18;;;;;;;0.10;0.10;;;;;;;16.60;73.44;101940.06;5018227;28;20084;-80
2022/10/29 07:45:48;;;;;;;0.80;0.80;;;;;;;16.64;73.83;101942.59;5022059;28;20493;-80
2022/10/29 07:48:15;;;;;;;1.58;1.23;;;;;;;16.71;74.01;101937.06;5018396;28;20555;-80
2022/10/29 07:50:41;;;;;;;0.10;0.10;;;;;;;16.72;74.43;101931.66;5015890;28;20295;-80
2022/10/29 07:53:08;;;;;;;0.10;0.10;;;;;;;16.78;73.86;101917.25;5025185;28;20040;-80
2022/10/29 07:55:35;;;;;;;0.13;0.13;;;;;;;16.81;73.48;101918.03;5027041;28;20030;-80
2022/10/29 07:58:04;;;;;;;0.13;0.13;;;;;;;16.86;73.85;101925.06;5034179;28;20037;-79
2022/10/29 08:00:34;;;;;;;0.75;0.75;;;;;;;16.88;74.43;101923.22;5033612;28;21520;-79
2022/10/29 08:03:00;;;;;;;0.43;0.43;;;;;;;16.93;74.06;101924.00;5028741;28;20045;-79
2022/10/29 08:05:27;;;;;;;0.10;0.10;;;;;;;16.97;74.54;101925.66;5031972;28;20091;-79
2022/10/29 08:07:54;;;;;;;0.10;0.10;;;;;;;17.05;74.17;101937.00;5031172;28;20541;-79
2022/10/29 08:10:22;;;;;;;0.10;0.10;;;;;;;17.11;74.39;101931.47;5033537;28;20073;-79
2022/10/29 08:12:50;;;;;;;0.30;0.30;;;;;;;17.20;74.32;101934.81;5034097;28;20038;-81
2022/10/29 08:15:17;;;;;;;0.30;0.30;;;;;;;17.23;74.25;101932.88;5033291;28;20034;-80
2022/10/29 08:17:43;;;;;;;0.40;0.40;;;;;;;17.33;73.93;101929.94;5027944;28;20068;-80
2022/10/29 08:20:09;;;;;;;1.52;1.42;;;;;;;17.39;74.28;101927.94;5033992;28;20030;-79
2022/10/29 08:22:35;;;;;;;0.20;0.20;;;;;;;17.45;74.24;101919.72;5031477;28;22004;-80
2022/10/29 08:25:02;;;;;;;0.30;0.30;;;;;;;17.54;74.04;101921.22;5034003;28;20029;-80
2022/10/29 08:27:28;;;;;;;0.20;0.20;;;;;;;17.64;74.03;101929.84;5033613;28;20025;-80
2022/10/29 08:29:54;;;;;;;0.10;0.10;;;;;;;17.70;74.72;101939.50;5033650;28;20042;-80
2022/10/29 08:32:20;;;;;;;0.30;0.30;;;;;;;17.75;74.37;101949.13;5029242;28;20033;-79
2022/10/29 08:34:46;;;;;;;0.28;0.28;;;;;;;17.83;73.59;101953.38;5033614;28;20028;-80
2022/10/29 08:37:12;;;;;;;0.10;0.10;;;;;;;17.88;73.74;101954.09;5028469;28;20048;-80
2022/10/29 08:39:38;;;;;;;1.02;0.95;;;;;;;17.92;73.66;101945.03;5025814;28;20128;-80
2022/10/29 08:42:31;;;;;;;0.43;0.43;;;;;;;17.95;74.07;101931.53;5027843;28;20071;-80
2022/10/29 08:50:48;;;;;;;0.10;0.10;;;;;;;18.06;73.48;101936.56;5100364;27;20388;-80
2022/10/29 08:53:18;;;;;;;0.55;0.55;;;;;;;18.11;73.39;101935.44;5091639;28;20063;-80
2022/10/29 08:55:46;;;;;;;0.52;0.52;;;;;;;18.17;73.49;101931.69;5079207;28;20108;-80
2022/10/29 08:58:25;;;;;;;0.20;0.20;;;;;;;18.28;73.47;101925.97;5087183;28;20043;-80
2022/10/29 09:00:55;;;;;;;0.20;0.20;;;;;;;18.32;73.40;101916.88;5087431;28;20028;-79
2022/10/29 09:03:23;;;;;;;0.30;0.30;;;;;;;18.38;73.32;101911.28;5085368;28;20043;-79
2022/10/29 09:08:54;;;;;;;0.10;0.10;;;;;;;18.57;73.23;101899.88;5056640;28;20406;-78
2022/10/29 09:14:27;;;;;;;0.63;0.63;;;;;;;18.68;73.04;101900.38;5130525;27;20871;-80
2022/10/29 09:22:31;;;;;;;0.10;0.10;;;;;;;18.78;72.32;101903.59;5088018;27;1182709;-80
2022/10/29 09:25:21;;;;;;;2.30;1.13;;;;;;;18.78;72.34;101890.16;5100220;28;20075;-79
2022/10/29 09:28:27;;;;;;;0.85;0.85;;;;;;;18.78;72.32;101884.78;5090992;28;20293;-80
2022/10/29 09:31:12;;;;;;;0.10;0.10;;;;;;;18.80;72.53;101877.53;5089798;28;20540;-81
2022/10/29 09:33:40;;;;;;;0.22;0.22;;;;;;;18.80;72.62;101874.84;5086384;28;20086;-81
2022/10/29 09:36:14;;;;;;;0.50;0.50;;;;;;;18.84;72.44;101846.06;5087845;28;20077;-79
2022/10/29 09:39:02;;;;;;;0.20;0.20;;;;;;;18.94;72.24;101836.78;5084114;28;20545;-79
2022/10/29 09:41:32;;;;;;;0.52;0.47;;;;;;;18.95;72.34;101843.00;5072473;28;20062;-79
2022/10/29 09:44:05;;;;;;;0.30;0.30;;;;;;;19.01;72.01;101850.81;5071863;28;20033;-79
2022/10/29 09:46:41;;;;;;;1.00;0.90;;;;;;;19.00;72.01;101865.19;5073411;28;20508;-79
2022/10/29 09:52:07;;;;;;;3.50;1.20;;;;;;;19.04;72.77;101856.06;5092824;27;20420;-78
2022/10/29 09:54:33;;;;;;;0.10;0.10;;;;;;;19.17;72.76;101856.47;5084976;28;20274;-77
2022/10/29 09:57:02;;;;;;;1.23;1.08;;;;;;;19.27;72.41;101846.22;5084812;28;20043;-78
2022/10/29 09:59:35;;;;;;;0.38;0.38;;;;;;;19.37;72.15;101843.06;5087240;28;20044;-78
2022/10/29 10:02:13;;;;;;;0.30;0.30;;;;;;;19.42;72.15;101840.22;5087789;28;20028;-78
2022/10/29 10:04:46;;;;;;;0.20;0.20;;;;;;;19.49;71.88;101854.25;5080912;28;20024;-78
2022/10/29 10:07:18;;;;;;;0.30;0.30;;;;;;;19.50;71.80;101847.94;5080439;28;20029;-78
2022/10/29 10:10:01;;;;;;;0.30;0.30;;;;;;;19.56;71.46;101847.69;5083308;28;20025;-78
2022/10/29 10:17:57;;;;;;;0.45;0.45;;;;;;;19.73;70.87;101833.53;5112511;27;20380;-78
2022/10/29 10:20:29;;;;;;;2.70;2.00;;;;;;;19.82;70.72;101833.13;5086737;28;20027;-78
2022/10/29 10:22:56;;;;;;;0.60;0.60;;;;;;;19.78;70.10;101833.34;5083181;28;20032;-78
2022/10/29 10:25:39;;;;;;;1.85;1.10;;;;;;;19.87;70.05;101827.59;5087582;28;20039;-78
2022/10/29 10:28:19;;;;;;;0.57;0.57;;;;;;;19.84;69.67;101815.16;5088059;28;20119;-78
2022/10/29 10:31:06;;;;;;;0.10;0.10;;;;;;;19.82;69.70;101810.75;5086278;28;20168;-78
2022/10/29 10:33:34;;;;;;;0.20;0.20;;;;;;;19.84;69.71;101803.56;5092751;28;20036;-78
2022/10/29 10:36:04;;;;;;;0.90;0.90;;;;;;;19.90;69.74;101802.38;5084707;28;20391;-78
2022/10/29 10:38:49;;;;;;;0.10;0.10;;;;;;;20.06;69.69;101811.50;5088281;28;20036;-78
2022/10/29 10:41:24;;;;;;;0.30;0.30;;;;;;;20.08;69.61;101816.84;5088101;28;20028;-79
2022/10/29 10:43:51;;;;;;;0.38;0.38;;;;;;;20.07;69.53;101815.09;5085310;28;20024;-79
2022/10/29 10:46:26;;;;;;;0.10;0.10;;;;;;;20.08;69.59;101817.72;5085522;28;20052;-79
2022/10/29 10:49:05;;;;;;;0.10;0.10;;;;;;;20.18;69.57;101821.72;5088089;28;20086;-79
2022/10/29 10:51:35;;;;;;;0.50;0.50;;;;;;;20.27;69.79;101833.91;5083566;28;20112;-82
2022/10/29 10:54:20;;;;;;;0.10;0.10;;;;;;;20.44;69.63;101848.44;5086601;28;20112;-79
2022/10/29 10:57:18;;;;;;;0.10;0.10;;;;;;;20.64;68.82;101842.13;5086561;28;20024;-79
2022/10/29 11:02:54;;;;;;;0.38;0.25;;;;;;;20.79;68.74;101837.88;5067175;28;20425;-80
2022/10/29 11:05:30;;;;;;;2.58;0.57;;;;;;;20.86;68.64;101831.25;5046833;28;20065;-80
2022/10/29 11:08:11;;;;;;;0.28;0.28;;;;;;;20.97;67.76;101825.31;5049278;28;20029;-81
2022/10/29 11:10:50;;;;;;;0.10;0.10;;;;;;;21.01;68.18;101813.47;5047542;28;20017;-80
2022/10/29 11:13:23;;;;;;;0.85;0.85;;;;;;;21.10;68.33;101812.16;5045585;28;20033;-80
2022/10/29 11:16:03;;;;;;;0.60;0.60;;;;;;;21.12;67.67;101811.13;5047008;28;20236;-81
2022/10/29 11:18:38;;;;;;;0.30;0.30;;;;;;;21.18;67.78;101809.94;5047605;28;20065;-80
2022/10/29 11:21:13;;;;;;;0.20;0.20;;;;;;;21.22;68.24;101803.47;5048391;28;20083;-80
2022/10/29 11:23:59;;;;;;;1.88;0.40;;;;;;;21.27;67.71;101801.41;5048487;28;20041;-80
2022/10/29 11:26:34;;;;;;;0.10;0.10;;;;;;;21.32;67.49;101802.03;5043266;28;20484;-81
2022/10/29 11:29:28;;;;;;;0.30;0.30;;;;;;;21.42;67.33;101794.38;5034403;28;20025;-80
2022/10/29 11:32:18;;;;;;;0.25;0.25;;;;;;;21.53;67.69;101791.09;5043538;28;20552;-80
2022/10/29 11:35:09;;;;;;;3.72;1.10;;;;;;;21.58;67.54;101786.41;5033476;28;20037;-80
2022/10/29 11:37:57;;;;;;;0.10;0.10;;;;;;;21.74;67.17;101777.50;5050231;28;20561;-80
2022/10/29 11:43:12;;;;;;;0.00;0.00;;;;;;;21.89;66.81;101771.28;5094811;27;20507;-80
2022/10/29 11:48:44;;;;;;;0.10;0.10;;;;;;;22.10;65.78;101766.56;5107929;27;20136;-80
2022/10/29 12:02:19;;;;;;;0.63;0.63;;;;;;;22.57;65.31;101756.84;5069490;27;20379;-81
2022/10/29 12:05:00;;;;;;;1.85;0.57;;;;;;;22.66;65.32;101751.88;5066820;28;20044;-78
2022/10/29 12:10:16;;;;;;;0.52;0.52;;;;;;;22.90;64.40;101746.88;5054938;28;20451;-77
2022/10/29 12:13:08;;;;;;;0.08;0.08;;;;;;;23.07;64.33;101745.91;5042090;28;20480;-78
2022/10/29 12:15:50;;;;;;;0.00;0.00;;;;;;;23.15;63.25;101735.50;5042035;28;20041;-77
2022/10/29 12:18:56;;;;;;;0.10;0.10;;;;;;;23.38;63.75;101738.72;5036757;28;20045;-78
2022/10/29 12:21:35;;;;;;;0.10;0.10;;;;;;;23.44;63.25;101735.66;5033630;28;20049;-79
2022/10/29 12:24:18;;;;;;;0.28;0.28;;;;;;;23.55;63.11;101735.00;5033872;28;20040;-80
2022/10/29 12:26:53;;;;;;;0.10;0.10;;;;;;;23.55;62.76;101722.34;5033439;28;20966;-80
2022/10/29 12:29:31;;;;;;;0.17;0.17;;;;;;;23.53;62.39;101718.84;5037500;28;20509;-80
2022/10/29 12:34:49;;;;;;;0.17;0.17;;;;;;;23.54;62.19;101717.91;5100809;27;20415;-77
2022/10/29 12:37:40;;;;;;;0.73;0.73;;;;;;;23.59;62.28;101715.78;5082612;28;20024;-77
2022/10/29 12:40:19;;;;;;;1.50;1.40;;;;;;;23.67;61.96;101711.75;5085384;28;20060;-77